createdAt,value
2022-08-24T00:03:12.138Z,4.93
2022-08-24T00:08:34.942Z,5.43
2022-08-24T00:13:57.124Z,8.88
2022-08-24T00:19:18.888Z,3.50
2022-08-24T00:24:40.648Z,5.13
2022-08-24T00:30:05.780Z,4.47
2022-08-24T00:35:28.038Z,8.13
2022-08-24T00:40:50.447Z,8.40
2022-08-24T00:46:42.231Z,4.65
2022-08-24T00:52:24.737Z,5.40
2022-08-24T00:57:51.221Z,6.25
2022-08-24T01:03:13.577Z,4.70
2022-08-24T01:08:35.746Z,5.10
2022-08-24T01:13:57.794Z,6.00
2022-08-24T01:19:29.068Z,7.78
2022-08-24T01:24:50.941Z,5.93
2022-08-24T01:30:35.981Z,4.97
2022-08-24T01:36:05.791Z,7.65
2022-08-24T01:41:29.183Z,6.03
2022-08-24T01:46:53.713Z,5.95
2022-08-24T01:52:19.519Z,7.70
2022-08-24T01:57:41.304Z,12.40
2022-08-24T02:03:04.465Z,12.18
2022-08-24T02:08:26.343Z,15.88
2022-08-24T02:13:48.101Z,15.25
2022-08-24T02:19:10.150Z,24.50
2022-08-24T02:24:32.766Z,22.00
2022-08-24T02:29:54.511Z,19.77
2022-08-24T02:35:17.257Z,10.00
2022-08-24T02:40:39.139Z,11.07
2022-08-24T02:46:00.939Z,14.40
2022-08-24T02:51:31.010Z,8.43
2022-08-24T02:57:03.517Z,7.70
2022-08-24T03:02:25.403Z,6.80
2022-08-24T03:07:47.401Z,4.60
2022-08-24T03:13:09.987Z,5.78
2022-08-24T03:18:32.175Z,7.40
2022-08-24T03:23:54.092Z,6.65
2022-08-24T03:29:16.122Z,4.97
2022-08-24T03:34:37.991Z,9.00
2022-08-24T03:40:00.095Z,12.30
2022-08-24T03:45:22.883Z,5.53
2022-08-24T03:50:46.157Z,6.00
2022-08-24T03:56:09.018Z,10.32
2022-08-24T04:01:31.253Z,10.63
2022-08-24T04:06:53.163Z,4.78
2022-08-24T04:12:14.910Z,5.15
2022-08-24T04:17:36.686Z,4.70
2022-08-24T04:22:58.527Z,6.18
2022-08-24T04:28:21.269Z,5.25
2022-08-24T04:33:43.082Z,4.75
2022-08-24T04:39:06.015Z,6.13
2022-08-24T04:44:27.801Z,4.10
2022-08-24T04:49:53.537Z,5.95
2022-08-24T04:55:15.565Z,7.15
2022-08-24T05:00:37.366Z,4.70
2022-08-24T05:05:59.123Z,6.97
2022-08-24T05:11:22.263Z,5.68
2022-08-24T05:16:44.002Z,12.13
2022-08-24T05:22:14.639Z,8.80
2022-08-24T05:27:36.502Z,5.03
2022-08-24T05:32:58.371Z,8.02
2022-08-24T05:38:20.184Z,5.85
2022-08-24T05:43:42.283Z,4.88
2022-08-24T05:49:05.022Z,5.43
2022-08-24T05:54:27.015Z,5.85
2022-08-24T05:59:49.580Z,8.55
2022-08-24T06:05:11.565Z,9.80
2022-08-24T06:10:40.313Z,5.05
2022-08-24T06:16:20.775Z,4.85
2022-08-24T06:21:46.754Z,7.72
2022-08-24T06:27:23.516Z,6.72
2022-08-24T06:32:45.390Z,8.90
2022-08-24T06:38:07.138Z,9.85
2022-08-24T06:43:29.410Z,8.45
2022-08-24T06:48:51.382Z,9.60
2022-08-24T06:54:13.148Z,7.03
2022-08-24T06:59:34.993Z,12.07
2022-08-24T07:04:56.773Z,10.63
2022-08-24T07:10:18.529Z,8.02
2022-08-24T07:15:44.958Z,7.43
2022-08-24T07:21:06.915Z,9.75
2022-08-24T07:26:31.420Z,8.82
2022-08-24T07:31:53.322Z,13.35
2022-08-24T07:37:15.373Z,10.40
2022-08-24T07:42:37.193Z,18.15
2022-08-24T07:53:32.536Z,10.68
2022-08-24T07:59:07.698Z,9.23
2022-08-24T08:04:32.793Z,8.73
2022-08-24T08:09:54.544Z,7.15
2022-08-24T08:15:16.379Z,4.88
2022-08-24T08:20:40.676Z,2.60
2022-08-24T08:26:02.922Z,3.63
2022-08-24T08:31:26.029Z,7.82
2022-08-24T08:36:49.514Z,17.95
2022-08-24T08:42:30.116Z,7.75
2022-08-24T08:48:40.897Z,4.55
2022-08-24T08:54:13.144Z,7.05
2022-08-24T08:59:40.825Z,6.55
2022-08-24T09:05:43.072Z,5.35
2022-08-24T09:11:23.695Z,8.52
2022-08-24T09:17:13.430Z,2.80
2022-08-24T09:22:40.667Z,2.95
2022-08-24T09:28:31.465Z,3.22
2022-08-24T09:34:33.573Z,3.75
2022-08-24T09:40:24.709Z,3.65
2022-08-24T09:46:13.905Z,1.65
2022-08-24T09:52:18.528Z,4.18
2022-08-24T09:58:01.490Z,2.15
2022-08-24T10:03:46.734Z,1.67
2022-08-24T10:09:19.272Z,2.60
2022-08-24T10:15:06.387Z,1.77
2022-08-24T10:21:04.050Z,2.13
2022-08-24T10:26:44.108Z,2.33
2022-08-24T10:32:29.217Z,5.60
2022-08-24T10:38:41.520Z,1.65
2022-08-24T10:44:47.673Z,2.22
2022-08-24T10:50:31.360Z,3.03
2022-08-24T10:56:05.631Z,3.78
2022-08-24T11:01:29.836Z,1.77
2022-08-24T11:07:18.097Z,2.80
2022-08-24T11:12:45.326Z,2.30
2022-08-24T11:18:07.089Z,1.38
2022-08-24T11:23:36.557Z,1.50
2022-08-24T11:29:04.453Z,2.13
2022-08-24T11:34:39.529Z,3.25
2022-08-24T11:40:02.360Z,4.78
2022-08-24T11:45:30.081Z,1.38
2022-08-24T11:51:04.974Z,2.60
2022-08-24T11:57:10.934Z,3.10
2022-08-24T12:02:41.848Z,4.97
2022-08-24T12:08:19.455Z,1.45
2022-08-24T12:14:02.622Z,1.38
2022-08-24T12:19:30.856Z,1.88
2022-08-24T12:24:57.240Z,1.25
2022-08-24T12:30:19.244Z,2.70
2022-08-24T12:35:52.470Z,1.23
2022-08-24T12:41:32.096Z,1.30
2022-08-24T12:46:54.568Z,5.97
2022-08-24T12:52:37.461Z,1.17
2022-08-24T13:04:05.626Z,1.30
2022-08-24T13:09:56.279Z,2.75
2022-08-24T13:15:28.541Z,1.20
2022-08-24T13:20:50.364Z,2.97
2022-08-24T13:26:26.964Z,2.25
2022-08-24T13:31:53.996Z,2.15
2022-08-24T13:37:24.941Z,1.60
2022-08-24T13:43:17.653Z,1.73
2022-08-24T13:48:39.356Z,1.00
2022-08-24T13:54:19.964Z,2.55
2022-08-24T14:00:19.447Z,2.83
2022-08-24T14:06:21.537Z,1.63
2022-08-24T14:11:58.495Z,1.58
2022-08-24T14:17:55.086Z,3.00
2022-08-24T14:23:39.319Z,2.00
2022-08-24T14:29:19.241Z,3.72
2022-08-24T14:35:04.049Z,1.98
2022-08-24T14:40:43.776Z,1.75
2022-08-24T14:46:18.848Z,1.50
2022-08-24T14:52:00.859Z,2.58
2022-08-24T14:58:04.674Z,1.98
2022-08-24T15:04:10.941Z,1.45
2022-08-24T15:09:38.662Z,1.60
2022-08-24T15:15:21.321Z,1.48
2022-08-24T15:21:10.956Z,3.53
2022-08-24T15:27:11.764Z,2.53
2022-08-24T15:32:51.687Z,1.80
2022-08-24T15:38:31.742Z,2.72
2022-08-24T15:43:56.415Z,1.63
2022-08-24T15:49:23.818Z,2.35
2022-08-24T15:54:58.201Z,2.53
2022-08-24T16:00:44.748Z,1.85
2022-08-24T16:06:23.525Z,3.80
2022-08-24T16:12:05.018Z,1.42
2022-08-24T16:17:30.216Z,1.90
2022-08-24T16:23:00.740Z,1.60
2022-08-24T16:28:22.742Z,3.90
2022-08-24T16:33:47.232Z,4.63
2022-08-24T16:39:11.218Z,2.95
2022-08-24T16:44:38.973Z,3.83
2022-08-24T16:50:00.710Z,2.90
2022-08-24T16:55:22.931Z,1.70
2022-08-24T17:00:45.994Z,1.33
2022-08-24T17:06:12.216Z,1.50
2022-08-24T17:11:34.674Z,1.85
2022-08-24T17:16:58.447Z,3.10
2022-08-24T17:22:22.820Z,1.65
2022-08-24T17:27:45.092Z,4.47
2022-08-24T17:33:06.932Z,1.30
2022-08-24T17:38:30.320Z,4.75
2022-08-24T17:43:52.999Z,4.25
2022-08-24T17:49:14.764Z,4.32
2022-08-24T17:54:36.514Z,9.13
2022-08-24T17:59:58.348Z,4.60
2022-08-24T18:05:21.823Z,2.17
2022-08-24T18:10:43.634Z,4.03
2022-08-24T18:16:19.256Z,1.85
2022-08-24T18:21:42.512Z,4.68
2022-08-24T18:27:11.230Z,4.78
2022-08-24T18:32:36.404Z,3.58
2022-08-24T18:38:01.459Z,2.97
2022-08-24T18:43:24.086Z,5.55
2022-08-24T18:48:45.985Z,1.90
2022-08-24T18:54:14.176Z,2.85
2022-08-24T18:59:39.290Z,4.32
2022-08-24T19:05:10.726Z,2.85
2022-08-24T19:10:36.423Z,5.00
2022-08-24T19:15:58.225Z,4.10
2022-08-24T19:21:20.505Z,4.10
2022-08-24T19:26:42.670Z,3.70
2022-08-24T19:32:06.283Z,2.80
2022-08-24T19:37:31.938Z,4.05
2022-08-24T19:42:54.524Z,4.28
2022-08-24T19:48:17.188Z,3.67
2022-08-24T19:53:39.879Z,2.08
2022-08-24T19:59:07.282Z,2.28
2022-08-24T20:04:29.105Z,5.18
2022-08-24T20:09:50.886Z,6.57
2022-08-24T20:15:13.059Z,3.85
2022-08-24T20:20:35.065Z,2.78
2022-08-24T20:25:59.087Z,5.78
2022-08-24T20:31:28.226Z,3.72
2022-08-24T20:36:50.895Z,1.80
2022-08-24T20:42:17.368Z,2.78
2022-08-24T20:47:47.336Z,2.10
2022-08-24T20:53:11.244Z,2.20
2022-08-24T20:58:33.027Z,2.55
2022-08-24T21:03:54.866Z,3.42
2022-08-24T21:09:16.635Z,5.68
2022-08-24T21:14:38.406Z,3.22
2022-08-24T21:20:00.471Z,2.42
2022-08-24T21:25:22.236Z,3.10
2022-08-24T21:30:44.044Z,2.80
2022-08-24T21:36:06.071Z,4.57
2022-08-24T21:41:29.414Z,3.42
2022-08-24T21:46:51.927Z,2.85
2022-08-24T21:52:13.756Z,4.75
2022-08-24T21:57:35.559Z,3.13
2022-08-24T22:02:57.344Z,3.35
2022-08-24T22:08:19.121Z,3.33
2022-08-24T22:13:41.698Z,2.40
2022-08-24T22:19:04.129Z,2.35
2022-08-24T22:24:26.111Z,3.47
2022-08-24T22:29:52.377Z,4.43
2022-08-24T22:35:14.624Z,2.22
2022-08-24T22:40:36.683Z,2.20
2022-08-24T22:45:58.459Z,2.78
2022-08-24T22:51:21.449Z,4.15
2022-08-24T22:56:47.040Z,3.90
2022-08-24T23:02:12.241Z,2.10
2022-08-24T23:07:35.362Z,2.88
2022-08-24T23:12:57.157Z,3.22
2022-08-24T23:18:37.417Z,2.75
2022-08-24T23:23:59.417Z,2.53
2022-08-24T23:29:21.799Z,3.05
2022-08-24T23:34:43.828Z,2.45
2022-08-24T23:40:06.118Z,3.83
2022-08-24T23:45:28.375Z,5.20
2022-08-24T23:50:52.281Z,2.58
2022-08-24T23:56:21.022Z,2.63
